Time;durP1;ratioP1;P1;durP2;ratioP2;P2;SDS_P1;SDS_P2;PMS_P1;PMS_P2;Temp;Humidity;BMP_temperature;BMP_pressure;BME280_temperature;BME280_humidity;BME280_pressure;Samples;Min_cycle;Max_cycle;Signal;HPM_P1;HPM_P2
2023/11/21 00:01:58;;;;;;;12.70;3.40;;;8.00;99.90;;;;;;5050693;28;20444;-70
2023/11/21 00:04:27;;;;;;;13.70;3.90;;;8.00;99.90;;;;;;5051279;28;20440;-69
2023/11/21 00:06:55;;;;;;;11.10;2.93;;;8.00;99.90;;;;;;5051390;28;20480;-69
2023/11/21 00:09:24;;;;;;;11.73;3.00;;;8.00;99.90;;;;;;5051315;28;20496;-68
2023/11/21 00:11:53;;;;;;;10.97;3.43;;;8.00;99.90;;;;;;5047512;28;20540;-69
2023/11/21 00:14:21;;;;;;;11.77;3.23;;;8.00;99.90;;;;;;5050688;28;20470;-68
2023/11/21 00:16:49;;;;;;;9.37;2.53;;;8.00;99.90;;;;;;5051477;28;20914;-67
2023/11/21 00:19:17;;;;;;;9.17;2.70;;;7.90;99.90;;;;;;5051733;28;20832;-68
2023/11/21 00:21:45;;;;;;;13.40;2.87;;;7.80;99.90;;;;;;5050849;28;20440;-68
2023/11/21 00:24:14;;;;;;;12.97;4.27;;;7.90;99.90;;;;;;5051030;28;21133;-68
2023/11/21 00:26:42;;;;;;;9.47;2.37;;;7.90;99.90;;;;;;5050987;28;20501;-68
2023/11/21 00:29:11;;;;;;;11.33;3.10;;;8.00;99.90;;;;;;5050966;28;20480;-68
2023/11/21 00:31:39;;;;;;;12.80;2.70;;;7.90;99.90;;;;;;5051073;28;20456;-67
2023/11/21 00:34:07;;;;;;;13.13;2.80;;;8.10;99.90;;;;;;5050890;28;20458;-67
2023/11/21 00:36:35;;;;;;;14.57;2.40;;;8.20;99.90;;;;;;5051090;28;20809;-68
2023/11/21 00:39:05;;;;;;;9.90;2.40;;;8.20;99.90;;;;;;5050785;28;20469;-69
2023/11/21 00:41:33;;;;;;;8.83;2.10;;;8.20;99.90;;;;;;5050638;28;20449;-69
2023/11/21 00:44:01;;;;;;;10.90;2.27;;;8.20;99.90;;;;;;5050361;28;20449;-68
2023/11/21 00:46:31;;;;;;;9.60;2.27;;;8.30;99.90;;;;;;5050891;28;20519;-68
2023/11/21 00:48:59;;;;;;;8.03;2.20;;;8.30;99.90;;;;;;5050570;28;20473;-68
2023/11/21 00:51:27;;;;;;;12.33;2.67;;;8.30;99.90;;;;;;5050571;28;20908;-69
2023/11/21 00:53:55;;;;;;;7.73;2.27;;;8.30;99.90;;;;;;5050165;28;20448;-68
2023/11/21 00:56:23;;;;;;;9.23;1.70;;;8.30;99.90;;;;;;5048703;28;20441;-70
2023/11/21 00:58:52;;;;;;;7.73;1.90;;;8.30;99.90;;;;;;5037745;28;20478;-68
2023/11/21 01:01:21;;;;;;;9.87;2.10;;;8.40;99.90;;;;;;5048941;28;21040;-69
2023/11/21 01:03:51;;;;;;;8.33;1.70;;;8.30;99.90;;;;;;5049813;28;20625;-68
2023/11/21 01:06:19;;;;;;;7.60;2.10;;;8.40;99.90;;;;;;5050028;28;21222;-69
2023/11/21 01:08:47;;;;;;;7.97;2.53;;;8.40;99.90;;;;;;5050174;28;20551;-70
2023/11/21 01:11:15;;;;;;;12.63;2.17;;;8.30;99.90;;;;;;5050372;28;20520;-69
2023/11/21 01:13:44;;;;;;;9.40;1.87;;;8.40;99.90;;;;;;5050038;28;20529;-70
2023/11/21 01:16:13;;;;;;;10.00;2.63;;;8.40;99.90;;;;;;5049930;28;20466;-69
2023/11/21 01:18:40;;;;;;;10.13;2.07;;;8.50;99.90;;;;;;5049839;28;20483;-68
2023/11/21 01:21:10;;;;;;;7.53;1.83;;;8.50;99.90;;;;;;5049831;28;20557;-69
2023/11/21 01:23:38;;;;;;;8.10;1.77;;;8.50;99.90;;;;;;5049522;28;20478;-70
2023/11/21 01:26:08;;;;;;;11.30;2.20;;;8.50;99.90;;;;;;5049608;28;20568;-69
2023/11/21 01:28:36;;;;;;;11.00;2.83;;;8.50;99.90;;;;;;5048719;28;20473;-69
2023/11/21 01:31:04;;;;;;;8.27;1.73;;;8.60;99.90;;;;;;5049856;28;20470;-67
2023/11/21 01:33:33;;;;;;;11.87;1.93;;;8.50;99.90;;;;;;5053141;28;20450;-68
2023/11/21 01:36:01;;;;;;;11.97;2.70;;;8.50;99.90;;;;;;5049415;28;20963;-69
2023/11/21 01:38:32;;;;;;;9.90;1.87;;;8.50;99.90;;;;;;5049576;28;20496;-67
2023/11/21 01:41:00;;;;;;;10.37;1.90;;;8.50;99.90;;;;;;5049786;28;20469;-65
2023/11/21 01:43:30;;;;;;;9.00;2.00;;;8.50;99.90;;;;;;5049762;28;20544;-66
2023/11/21 01:45:58;;;;;;;8.40;1.57;;;8.40;99.90;;;;;;5049206;28;21059;-68
2023/11/21 01:48:28;;;;;;;9.93;3.00;;;8.40;99.90;;;;;;5047981;28;20556;-70
2023/11/21 01:50:56;;;;;;;10.00;2.53;;;8.30;99.90;;;;;;5049572;28;20501;-67
2023/11/21 01:53:26;;;;;;;12.20;1.60;;;8.30;99.90;;;;;;5049518;28;20454;-69
2023/11/21 01:55:56;;;;;;;9.50;1.83;;;8.30;99.90;;;;;;5048626;28;20446;-68
2023/11/21 01:58:25;;;;;;;8.23;1.80;;;8.40;99.90;;;;;;5048220;28;20484;-69
2023/11/21 02:00:54;;;;;;;8.30;1.70;;;8.40;99.90;;;;;;5043454;28;20872;-69
2023/11/21 02:03:22;;;;;;;9.37;1.60;;;8.40;99.90;;;;;;5049395;28;20470;-69
2023/11/21 02:05:52;;;;;;;8.83;1.83;;;8.40;99.90;;;;;;5047302;28;20940;-68
2023/11/21 02:08:20;;;;;;;9.10;1.53;;;8.40;99.90;;;;;;5048339;28;20860;-68
2023/11/21 02:10:48;;;;;;;11.23;2.00;;;8.50;99.90;;;;;;5048844;28;20442;-67
2023/11/21 02:13:17;;;;;;;9.30;1.67;;;8.50;99.90;;;;;;5047892;28;20445;-68
2023/11/21 02:15:45;;;;;;;7.97;1.70;;;8.50;99.90;;;;;;5049158;28;20448;-68
2023/11/21 02:18:15;;;;;;;7.50;1.60;;;8.50;99.90;;;;;;5048831;28;20448;-69
2023/11/21 02:20:43;;;;;;;9.93;1.60;;;8.60;99.90;;;;;;5049391;28;20532;-66
2023/11/21 02:23:12;;;;;;;7.87;1.60;;;8.60;99.90;;;;;;5048824;28;20476;-68
2023/11/21 02:25:42;;;;;;;7.23;1.47;;;8.60;99.90;;;;;;5048875;28;20805;-68
2023/11/21 02:28:12;;;;;;;6.80;1.40;;;8.60;99.90;;;;;;5048398;28;20476;-68
2023/11/21 02:30:40;;;;;;;7.67;1.40;;;8.50;99.90;;;;;;5049207;28;20436;-67
2023/11/21 02:33:08;;;;;;;7.80;1.17;;;8.60;99.90;;;;;;5048822;28;20450;-68
2023/11/21 02:35:37;;;;;;;8.37;1.70;;;8.60;99.90;;;;;;5048518;28;20446;-67
2023/11/21 02:38:06;;;;;;;8.57;1.50;;;8.50;99.90;;;;;;5047078;28;20453;-67
2023/11/21 02:40:35;;;;;;;6.70;1.13;;;8.60;99.90;;;;;;5048218;28;20880;-69
2023/11/21 02:43:05;;;;;;;7.67;1.60;;;8.60;99.90;;;;;;5048467;28;20499;-68
2023/11/21 02:45:33;;;;;;;7.90;1.43;;;8.50;99.90;;;;;;5048172;28;20451;-68
2023/11/21 02:48:01;;;;;;;6.63;1.00;;;8.60;99.90;;;;;;5047661;28;20570;-65
2023/11/21 02:50:29;;;;;;;7.47;1.30;;;8.60;99.90;;;;;;5048332;28;20449;-68
2023/11/21 02:53:00;;;;;;;8.30;2.30;;;8.60;99.90;;;;;;5048079;28;20525;-69
2023/11/21 02:55:28;;;;;;;16.03;1.70;;;8.60;99.90;;;;;;5048564;28;20548;-67
2023/11/21 02:57:57;;;;;;;7.10;1.17;;;8.60;99.90;;;;;;5048529;28;20450;-68
2023/11/21 03:00:26;;;;;;;7.37;1.30;;;8.50;99.90;;;;;;5048673;28;20481;-68
2023/11/21 03:02:56;;;;;;;9.30;2.07;;;8.50;99.90;;;;;;5041757;28;20512;-66
2023/11/21 03:05:24;;;;;;;9.03;1.57;;;8.50;99.90;;;;;;5047942;28;20898;-68
2023/11/21 03:07:52;;;;;;;8.20;1.23;;;8.60;99.90;;;;;;5047573;28;20556;-68
2023/11/21 03:10:20;;;;;;;7.10;1.50;;;8.60;99.90;;;;;;5048188;28;20503;-69
2023/11/21 03:12:48;;;;;;;7.60;1.43;;;8.50;99.90;;;;;;5048123;28;20901;-68
2023/11/21 03:15:18;;;;;;;6.00;0.90;;;8.50;99.90;;;;;;5047766;28;20561;-68
2023/11/21 03:17:46;;;;;;;10.10;1.50;;;8.50;99.90;;;;;;5047659;28;20575;-67
2023/11/21 03:20:16;;;;;;;7.13;1.37;;;8.50;99.90;;;;;;5048068;28;20478;-66
2023/11/21 03:22:44;;;;;;;7.90;1.20;;;8.40;99.90;;;;;;5048082;28;20476;-67
2023/11/21 03:25:12;;;;;;;9.80;1.50;;;8.40;99.90;;;;;;5047492;28;20499;-67
2023/11/21 03:27:40;;;;;;;8.63;1.23;;;8.40;99.90;;;;;;5047922;28;20490;-68
2023/11/21 03:30:10;;;;;;;6.90;1.13;;;8.40;99.90;;;;;;5048139;28;20470;-68
2023/11/21 03:32:40;;;;;;;27.63;3.27;;;8.40;99.90;;;;;;5048145;28;20475;-67
2023/11/21 03:35:08;;;;;;;7.87;1.77;;;8.50;99.90;;;;;;5048013;28;20536;-69
2023/11/21 03:37:38;;;;;;;7.50;1.40;;;8.50;99.90;;;;;;5047691;28;20473;-67
2023/11/21 03:40:08;;;;;;;7.90;1.60;;;8.60;99.90;;;;;;5048085;28;20827;-67
2023/11/21 03:42:36;;;;;;;8.30;1.03;;;8.50;99.90;;;;;;5049793;28;20443;-67
2023/11/21 03:45:04;;;;;;;6.80;0.90;;;8.50;99.90;;;;;;5052549;28;20481;-67
2023/11/21 03:47:32;;;;;;;9.67;1.23;;;8.50;99.90;;;;;;5047615;28;20490;-69
2023/11/21 03:50:03;;;;;;;7.07;1.20;;;8.60;99.90;;;;;;5047678;28;20548;-68
2023/11/21 03:52:31;;;;;;;8.03;1.20;;;8.50;99.90;;;;;;5047592;28;20869;-68
2023/11/21 03:54:59;;;;;;;7.50;1.80;;;8.50;99.90;;;;;;5047096;28;20541;-68
2023/11/21 03:57:27;;;;;;;7.80;1.20;;;8.50;99.90;;;;;;5047257;28;20517;-67
2023/11/21 03:59:55;;;;;;;6.80;1.03;;;8.40;99.90;;;;;;5047063;28;21034;-68
2023/11/21 04:02:25;;;;;;;5.90;0.80;;;8.50;99.90;;;;;;5043326;28;21085;-67
2023/11/21 04:04:53;;;;;;;7.27;1.00;;;8.60;99.90;;;;;;5046784;28;20480;-69
2023/11/21 04:07:22;;;;;;;6.30;1.00;;;8.60;99.90;;;;;;5046909;28;20490;-68
2023/11/21 04:09:50;;;;;;;7.70;1.30;;;8.60;99.90;;;;;;5047530;28;20532;-69
2023/11/21 04:12:18;;;;;;;7.00;1.20;;;8.70;99.90;;;;;;5046820;28;20484;-69
2023/11/21 04:14:46;;;;;;;8.30;1.30;;;8.70;99.90;;;;;;5047187;28;20485;-68
2023/11/21 04:17:14;;;;;;;6.90;1.10;;;8.60;99.90;;;;;;5047300;28;20560;-67
2023/11/21 04:19:42;;;;;;;7.37;1.50;;;8.60;99.90;;;;;;5047314;28;20481;-69
2023/11/21 04:22:10;;;;;;;6.27;1.27;;;8.50;99.90;;;;;;5047278;28;20968;-69
2023/11/21 04:24:39;;;;;;;8.27;0.73;;;8.40;99.90;;;;;;5047007;28;21308;-69
2023/11/21 04:27:07;;;;;;;6.77;0.97;;;8.40;99.90;;;;;;5046993;28;20504;-68
2023/11/21 04:29:35;;;;;;;6.50;0.80;;;8.40;99.90;;;;;;5047313;28;20513;-69
2023/11/21 04:32:04;;;;;;;6.80;1.00;;;8.30;99.90;;;;;;5047477;28;20452;-69
2023/11/21 04:34:32;;;;;;;7.10;0.87;;;8.30;99.90;;;;;;5047102;28;20506;-68
2023/11/21 04:37:00;;;;;;;6.17;0.63;;;8.30;99.90;;;;;;5048871;28;20476;-68
2023/11/21 04:39:28;;;;;;;6.50;1.27;;;8.20;99.90;;;;;;5050670;28;21009;-68
2023/11/21 04:41:57;;;;;;;6.37;1.00;;;8.20;99.90;;;;;;5051131;28;20827;-67
2023/11/21 04:44:25;;;;;;;9.43;1.37;;;8.20;99.90;;;;;;5050663;28;20449;-69
2023/11/21 04:46:53;;;;;;;8.00;1.00;;;8.10;99.90;;;;;;5051149;28;20453;-68
2023/11/21 04:49:21;;;;;;;6.10;0.97;;;8.00;99.90;;;;;;5049552;28;20509;-69
2023/11/21 04:51:49;;;;;;;7.30;1.10;;;8.00;99.90;;;;;;5048122;28;20487;-68
2023/11/21 04:54:18;;;;;;;6.90;1.57;;;8.00;99.90;;;;;;5050063;28;20542;-68
2023/11/21 04:56:45;;;;;;;6.23;0.93;;;8.00;99.90;;;;;;5050378;28;20557;-68
2023/11/21 04:59:15;;;;;;;6.50;1.03;;;8.00;99.90;;;;;;5049864;28;20485;-68
2023/11/21 05:01:43;;;;;;;6.30;0.97;;;8.00;99.90;;;;;;5049996;28;20475;-68
2023/11/21 05:04:10;;;;;;;7.33;1.90;;;8.10;99.90;;;;;;5044524;28;20470;-68
2023/11/21 05:06:38;;;;;;;9.50;1.30;;;8.10;99.90;;;;;;5048902;28;20466;-68
2023/11/21 05:09:11;;;;;;;7.10;1.40;;;8.10;99.90;;;;;;5049832;28;20562;-68
2023/11/21 05:11:40;;;;;;;6.43;1.20;;;8.10;99.90;;;;;;5048697;28;21030;-69
2023/11/21 05:14:08;;;;;;;8.00;1.20;;;8.20;99.90;;;;;;5045295;28;20895;-68
2023/11/21 05:16:37;;;;;;;6.00;0.90;;;8.20;99.90;;;;;;5046116;28;20448;-69
2023/11/21 05:19:06;;;;;;;6.60;1.03;;;8.10;99.90;;;;;;5049550;28;20940;-68
2023/11/21 05:21:35;;;;;;;6.70;1.10;;;8.10;99.90;;;;;;5047994;28;20458;-67
2023/11/21 05:24:05;;;;;;;9.70;1.00;;;8.00;99.90;;;;;;5044712;28;20444;-70
2023/11/21 05:26:33;;;;;;;6.87;1.30;;;8.00;99.90;;;;;;5049603;28;20446;-67
2023/11/21 05:29:01;;;;;;;7.87;1.37;;;8.00;99.90;;;;;;5049567;28;20486;-68
2023/11/21 05:31:29;;;;;;;7.70;1.00;;;8.10;99.90;;;;;;5049437;28;20544;-67
2023/11/21 05:33:58;;;;;;;6.33;1.00;;;8.00;99.90;;;;;;5049882;28;20464;-68
2023/11/21 05:36:26;;;;;;;7.90;1.30;;;8.00;99.90;;;;;;5050021;28;20451;-69
2023/11/21 05:38:54;;;;;;;6.87;1.10;;;8.00;99.90;;;;;;5049819;28;20501;-72
2023/11/21 05:41:22;;;;;;;6.40;1.10;;;8.10;99.90;;;;;;5049889;28;20446;-68
2023/11/21 05:43:50;;;;;;;6.60;1.03;;;8.00;99.90;;;;;;5049703;28;21015;-68
2023/11/21 05:46:18;;;;;;;6.60;1.03;;;8.00;99.90;;;;;;5050480;28;20453;-68
2023/11/21 05:48:46;;;;;;;7.23;1.23;;;8.00;99.90;;;;;;5049271;28;20500;-68
2023/11/21 05:51:16;;;;;;;7.20;1.30;;;7.90;99.90;;;;;;5050327;28;20535;-69
2023/11/21 05:53:44;;;;;;;6.63;1.10;;;7.90;99.90;;;;;;5057728;28;20503;-69
2023/11/21 05:56:12;;;;;;;7.27;1.00;;;7.90;99.90;;;;;;5049758;28;20452;-68
2023/11/21 05:58:39;;;;;;;7.70;1.47;;;7.80;99.90;;;;;;5049897;28;20522;-68
2023/11/21 06:01:09;;;;;;;7.83;1.57;;;7.90;99.90;;;;;;5049683;28;20453;-67
2023/11/21 06:03:38;;;;;;;9.03;1.40;;;7.90;99.90;;;;;;5049158;28;20452;-67
2023/11/21 06:06:06;;;;;;;6.40;1.07;;;8.00;99.90;;;;;;5049229;28;20461;-68
2023/11/21 06:08:36;;;;;;;7.40;1.20;;;7.90;99.90;;;;;;5049067;28;20924;-68
2023/11/21 06:11:04;;;;;;;6.50;1.30;;;7.80;99.90;;;;;;5049244;28;20457;-69
2023/11/21 06:13:32;;;;;;;7.80;1.00;;;7.90;99.90;;;;;;5049369;28;20450;-70
2023/11/21 06:16:00;;;;;;;8.53;1.10;;;7.90;99.90;;;;;;5048952;28;20451;-69
2023/11/21 06:18:28;;;;;;;6.70;1.30;;;7.90;99.90;;;;;;5048706;28;20527;-70
2023/11/21 06:20:56;;;;;;;6.50;1.23;;;7.80;99.90;;;;;;5048667;28;20446;-71
2023/11/21 06:23:24;;;;;;;6.77;0.93;;;7.80;99.90;;;;;;5045770;28;20776;-69
2023/11/21 06:25:53;;;;;;;7.10;1.10;;;7.70;99.90;;;;;;5042028;28;20872;-68
2023/11/21 06:28:21;;;;;;;7.50;1.67;;;7.70;99.90;;;;;;5041033;28;20451;-67
2023/11/21 06:30:50;;;;;;;9.53;1.30;;;7.60;99.90;;;;;;5045595;28;20438;-69
2023/11/21 06:33:18;;;;;;;6.30;1.20;;;7.50;99.90;;;;;;5045501;28;20455;-68
2023/11/21 06:35:46;;;;;;;10.30;1.60;;;7.60;99.90;;;;;;5047987;28;20972;-68
2023/11/21 06:38:14;;;;;;;6.40;1.23;;;7.60;99.90;;;;;;5048433;28;20529;-67
2023/11/21 06:40:42;;;;;;;6.20;1.20;;;7.60;99.90;;;;;;5048427;28;20602;-69
2023/11/21 06:43:11;;;;;;;7.57;1.30;;;7.60;99.90;;;;;;5047630;28;20448;-69
2023/11/21 06:45:39;;;;;;;6.40;1.40;;;7.70;99.90;;;;;;5048333;28;20450;-70
2023/11/21 06:48:07;;;;;;;7.50;1.30;;;7.80;99.90;;;;;;5048153;28;21037;-69
2023/11/21 06:50:36;;;;;;;8.20;1.27;;;7.80;99.90;;;;;;5047849;28;20492;-68
2023/11/21 06:53:06;;;;;;;6.20;1.20;;;7.90;99.90;;;;;;5048843;28;20449;-68
2023/11/21 06:55:35;;;;;;;7.30;1.20;;;7.80;99.90;;;;;;5048386;28;20528;-68
2023/11/21 06:58:03;;;;;;;8.33;1.30;;;7.80;99.90;;;;;;5047975;28;20489;-67
2023/11/21 07:00:32;;;;;;;7.53;1.30;;;7.80;99.90;;;;;;5045854;28;20564;-67
2023/11/21 07:03:00;;;;;;;7.80;1.53;;;7.90;99.90;;;;;;5046981;28;20450;-68
2023/11/21 07:05:28;;;;;;;7.90;1.40;;;7.90;99.90;;;;;;5047255;28;20449;-69
2023/11/21 07:07:56;;;;;;;8.13;1.70;;;8.00;99.90;;;;;;5047453;28;20544;-69
2023/11/21 07:10:25;;;;;;;7.27;1.50;;;8.00;99.90;;;;;;5047433;28;20493;-69
2023/11/21 07:12:53;;;;;;;6.73;1.40;;;8.00;99.90;;;;;;5047439;28;20452;-70
2023/11/21 07:15:20;;;;;;;8.90;1.63;;;8.00;99.90;;;;;;5047538;28;20552;-68
2023/11/21 07:17:50;;;;;;;8.20;2.00;;;8.00;99.90;;;;;;5047606;28;20544;-69
2023/11/21 07:20:18;;;;;;;6.73;1.47;;;8.00;99.90;;;;;;5048502;28;20580;-69
2023/11/21 07:22:46;;;;;;;9.13;1.50;;;8.00;99.90;;;;;;5048292;28;20549;-68
2023/11/21 07:25:14;;;;;;;6.83;1.33;;;8.10;99.90;;;;;;5048194;28;20458;-70
2023/11/21 07:27:42;;;;;;;7.33;1.77;;;8.10;99.90;;;;;;5048198;28;20546;-70
2023/11/21 07:30:13;;;;;;;11.10;1.50;;;8.10;99.90;;;;;;5048291;28;20490;-68
2023/11/21 07:32:41;;;;;;;9.53;1.20;;;8.10;99.90;;;;;;5048270;28;20505;-71
2023/11/21 07:35:11;;;;;;;8.77;1.43;;;8.10;99.90;;;;;;5048094;28;20955;-70
2023/11/21 07:37:39;;;;;;;8.30;1.80;;;8.20;99.90;;;;;;5048357;28;20457;-70
2023/11/21 07:40:09;;;;;;;6.87;1.40;;;8.20;99.90;;;;;;5048389;28;20463;-71
2023/11/21 07:42:37;;;;;;;7.17;1.10;;;8.20;99.90;;;;;;5048029;28;20438;-70
2023/11/21 07:45:07;;;;;;;7.80;1.50;;;8.30;99.90;;;;;;5047681;28;20451;-69
2023/11/21 07:47:35;;;;;;;7.90;1.17;;;8.30;99.90;;;;;;5047807;28;20449;-72
2023/11/21 07:50:04;;;;;;;6.87;1.40;;;8.30;99.90;;;;;;5047404;28;20499;-71
2023/11/21 07:52:34;;;;;;;7.80;1.43;;;8.40;99.90;;;;;;5048143;28;20880;-70
2023/11/21 07:55:03;;;;;;;8.70;1.87;;;8.50;99.90;;;;;;5048168;28;20563;-73
2023/11/21 07:57:31;;;;;;;8.37;1.93;;;8.50;99.90;;;;;;5049017;28;20455;-70
2023/11/21 08:00:00;;;;;;;6.40;1.17;;;8.50;99.90;;;;;;5049084;28;20530;-70
2023/11/21 08:02:28;;;;;;;8.30;1.47;;;8.50;99.90;;;;;;5048588;28;20538;-73
2023/11/21 08:04:56;;;;;;;7.10;1.30;;;8.50;99.90;;;;;;5047746;28;20455;-73
2023/11/21 08:07:25;;;;;;;6.80;1.20;;;8.50;99.90;;;;;;5047508;28;21091;-73
2023/11/21 08:09:56;;;;;;;7.00;1.67;;;8.40;99.90;;;;;;5047460;28;20503;-71
2023/11/21 08:12:24;;;;;;;8.63;1.80;;;8.50;99.90;;;;;;5050025;28;20455;-70
2023/11/21 08:14:52;;;;;;;6.90;1.50;;;8.60;99.90;;;;;;5053001;28;20457;-70
2023/11/21 08:17:20;;;;;;;6.30;1.10;;;8.70;99.90;;;;;;5055181;28;20544;-73
2023/11/21 08:19:49;;;;;;;9.07;1.60;;;8.80;99.90;;;;;;5051606;28;20591;-73
2023/11/21 08:22:18;;;;;;;8.30;1.20;;;8.90;99.90;;;;;;5051727;28;20451;-73
2023/11/21 08:24:46;;;;;;;7.67;1.60;;;9.10;99.90;;;;;;5051616;28;20447;-73
2023/11/21 08:27:16;;;;;;;8.30;2.27;;;9.10;99.90;;;;;;5051459;28;20445;-73
2023/11/21 08:29:44;;;;;;;7.93;3.17;;;9.30;99.90;;;;;;5051225;28;20496;-73
2023/11/21 08:32:12;;;;;;;6.80;1.73;;;9.40;99.90;;;;;;5051330;28;20887;-72
2023/11/21 08:34:42;;;;;;;9.30;2.70;;;9.40;99.90;;;;;;5050950;28;20459;-74
2023/11/21 08:37:12;;;;;;;9.00;2.20;;;9.40;99.90;;;;;;5051088;28;20918;-73
2023/11/21 08:39:41;;;;;;;6.80;2.10;;;9.40;99.90;;;;;;5051301;28;20480;-73
2023/11/21 08:42:09;;;;;;;8.87;1.77;;;9.60;99.90;;;;;;5051396;28;20534;-73
2023/11/21 08:44:39;;;;;;;6.77;1.83;;;9.60;99.90;;;;;;5050792;28;20496;-73
2023/11/21 08:47:07;;;;;;;8.20;1.90;;;9.60;99.90;;;;;;5050858;28;20528;-74
2023/11/21 08:49:36;;;;;;;7.00;1.97;;;9.70;99.90;;;;;;5051037;28;20483;-73
2023/11/21 08:52:05;;;;;;;7.00;1.50;;;9.60;99.90;;;;;;5051688;28;20489;-73
2023/11/21 08:54:34;;;;;;;7.40;2.40;;;9.60;99.90;;;;;;5051025;28;20459;-71
2023/11/21 08:57:02;;;;;;;6.60;1.37;;;9.60;99.90;;;;;;5051126;28;20448;-73
2023/11/21 08:59:30;;;;;;;8.90;1.90;;;9.80;99.90;;;;;;5050638;28;20478;-72
2023/11/21 09:01:59;;;;;;;7.30;1.60;;;9.90;99.90;;;;;;5050018;28;20531;-72
2023/11/21 09:04:28;;;;;;;7.83;1.67;;;10.10;99.90;;;;;;5049193;28;20955;-72
2023/11/21 09:06:56;;;;;;;7.33;1.30;;;10.40;99.90;;;;;;5049510;28;20448;-72
2023/11/21 09:09:24;;;;;;;7.17;1.30;;;10.70;99.90;;;;;;5049373;28;20568;-73
2023/11/21 09:11:52;;;;;;;7.07;1.27;;;10.90;99.90;;;;;;5049516;28;20482;-73
2023/11/21 09:14:20;;;;;;;7.23;1.40;;;11.00;99.90;;;;;;5048821;28;20546;-73
2023/11/21 09:16:48;;;;;;;11.03;2.00;;;11.00;99.90;;;;;;5049516;28;20553;-73
2023/11/21 09:19:18;;;;;;;8.00;1.53;;;11.00;99.90;;;;;;5049297;28;20501;-73
2023/11/21 09:21:46;;;;;;;8.20;2.07;;;11.20;99.90;;;;;;5049148;28;20455;-73
2023/11/21 09:24:14;;;;;;;7.43;2.00;;;11.30;99.90;;;;;;5049292;28;20452;-73
2023/11/21 09:26:42;;;;;;;7.03;1.33;;;11.40;99.90;;;;;;5049432;28;20505;-72
2023/11/21 09:29:10;;;;;;;9.00;1.40;;;11.40;99.90;;;;;;5049026;28;20821;-73
2023/11/21 09:31:44;;;;;;;9.10;1.53;;;11.50;99.90;;;;;;5058379;28;20538;-73
2023/11/21 09:34:13;;;;;;;7.00;1.80;;;11.50;99.90;;;;;;5050186;28;20531;-74
2023/11/21 09:36:45;;;;;;;7.13;1.80;;;11.40;99.90;;;;;;5050135;28;20459;-72
2023/11/21 09:39:14;;;;;;;9.10;1.40;;;11.40;99.90;;;;;;5050084;28;20980;-73
2023/11/21 09:41:45;;;;;;;6.60;1.67;;;11.30;99.90;;;;;;5050261;28;20829;-73
2023/11/21 09:44:17;;;;;;;6.70;1.60;;;11.40;99.90;;;;;;5049991;28;20467;-73
2023/11/21 09:46:49;;;;;;;7.67;1.80;;;11.40;99.90;;;;;;5049967;28;20831;-72
2023/11/21 09:49:22;;;;;;;7.80;1.60;;;11.30;99.90;;;;;;5049881;28;20466;-73
2023/11/21 09:51:56;;;;;;;6.70;1.33;;;11.20;99.90;;;;;;5049713;28;20557;-71
2023/11/21 09:54:24;;;;;;;8.40;1.77;;;11.20;99.90;;;;;;5049943;28;20877;-72
2023/11/21 09:56:52;;;;;;;7.17;1.80;;;11.00;99.90;;;;;;5049900;28;20442;-72
2023/11/21 09:59:21;;;;;;;7.43;1.30;;;11.00;99.90;;;;;;5049378;28;20487;-72
2023/11/21 10:01:50;;;;;;;7.37;1.40;;;10.90;99.90;;;;;;5049698;28;20532;-72
2023/11/21 10:04:19;;;;;;;6.60;1.30;;;10.90;99.90;;;;;;5049464;28;20580;-73
2023/11/21 10:06:49;;;;;;;6.07;1.00;;;10.90;99.90;;;;;;5049482;28;20460;-72
2023/11/21 10:09:20;;;;;;;6.40;1.87;;;10.90;99.90;;;;;;5049294;28;20496;-74
2023/11/21 10:11:50;;;;;;;6.00;1.20;;;10.80;99.90;;;;;;5048971;28;20573;-72
2023/11/21 10:14:20;;;;;;;7.93;1.60;;;10.80;99.90;;;;;;5049056;28;20456;-73
2023/11/21 10:16:50;;;;;;;6.50;1.30;;;10.60;99.90;;;;;;5049625;28;20447;-72
2023/11/21 10:19:20;;;;;;;6.70;1.37;;;10.60;99.90;;;;;;5049470;28;21215;-73
2023/11/21 10:21:48;;;;;;;6.60;1.20;;;10.30;99.90;;;;;;5049478;28;20548;-72
2023/11/21 10:24:18;;;;;;;6.93;1.50;;;10.20;99.90;;;;;;5049411;28;20869;-73
2023/11/21 10:26:48;;;;;;;8.30;1.60;;;10.10;99.90;;;;;;5049252;28;20463;-73
2023/11/21 10:29:21;;;;;;;7.23;1.50;;;9.90;99.90;;;;;;5048914;28;20474;-72
2023/11/21 10:31:54;;;;;;;7.40;1.47;;;9.90;99.90;;;;;;5048991;28;21175;-73
2023/11/21 10:34:22;;;;;;;6.37;1.27;;;9.80;99.90;;;;;;5048290;28;20898;-73
2023/11/21 10:36:50;;;;;;;8.73;1.40;;;9.80;99.90;;;;;;5048976;28;20453;-72
2023/11/21 10:39:23;;;;;;;7.83;1.37;;;9.70;99.90;;;;;;5048811;28;20503;-72
2023/11/21 10:41:51;;;;;;;8.20;1.50;;;9.80;99.90;;;;;;5049018;28;20444;-72
2023/11/21 10:44:21;;;;;;;7.10;1.40;;;9.80;99.90;;;;;;5048599;28;20968;-72
2023/11/21 10:46:51;;;;;;;6.70;1.10;;;9.90;99.90;;;;;;5048849;28;20566;-72
2023/11/21 10:49:20;;;;;;;6.33;1.20;;;9.80;99.90;;;;;;5048632;28;20466;-72
2023/11/21 10:51:50;;;;;;;6.80;1.20;;;10.00;99.90;;;;;;5048554;28;20604;-73
2023/11/21 10:54:21;;;;;;;6.53;1.10;;;9.90;99.90;;;;;;5048333;28;20893;-72
2023/11/21 10:56:51;;;;;;;6.90;1.03;;;10.00;99.90;;;;;;5048577;28;20946;-72
2023/11/21 10:59:21;;;;;;;6.73;1.00;;;10.10;99.90;;;;;;5048426;28;20487;-72
2023/11/21 11:01:51;;;;;;;6.30;0.90;;;10.30;99.90;;;;;;5048714;28;20452;-71
2023/11/21 11:04:22;;;;;;;6.30;1.07;;;10.40;99.90;;;;;;5048510;28;20593;-72
2023/11/21 11:06:56;;;;;;;6.00;0.87;;;10.50;99.90;;;;;;5048401;28;20505;-72
2023/11/21 11:09:25;;;;;;;6.90;1.00;;;10.60;99.90;;;;;;5048752;28;20473;-71
2023/11/21 11:11:54;;;;;;;6.40;1.20;;;10.70;99.90;;;;;;5040804;28;21086;-71
2023/11/21 11:14:25;;;;;;;6.13;1.10;;;10.80;99.90;;;;;;5048673;28;20453;-70
2023/11/21 11:16:55;;;;;;;6.20;1.20;;;10.90;99.90;;;;;;5048956;28;20444;-71
2023/11/21 11:19:25;;;;;;;6.20;1.10;;;10.80;99.90;;;;;;5048467;28;20472;-72
2023/11/21 11:22:06;;;;;;;6.20;1.20;;;10.80;99.90;;;;;;5048749;28;20448;-71
2023/11/21 11:25:13;;;;;;;6.57;1.50;;;10.80;99.90;;;;;;5048226;28;20444;-70
2023/11/21 11:27:49;;;;;;;5.80;0.93;;;10.90;99.90;;;;;;5048091;28;20454;-72
2023/11/21 11:30:29;;;;;;;6.23;1.30;;;11.00;99.90;;;;;;5048578;28;20465;-72
2023/11/21 11:33:09;;;;;;;6.30;1.20;;;11.20;99.90;;;;;;5048147;28;21006;-71
2023/11/21 11:35:47;;;;;;;6.57;1.07;;;11.30;99.90;;;;;;5048096;28;20459;-72
2023/11/21 11:38:15;;;;;;;7.80;1.60;;;11.40;99.90;;;;;;5047877;28;20957;-73
2023/11/21 11:40:47;;;;;;;6.20;1.00;;;11.40;99.90;;;;;;5048046;28;20453;-73
2023/11/21 11:43:26;;;;;;;6.20;1.20;;;11.30;99.90;;;;;;5048227;28;20448;-73
2023/11/21 11:45:58;;;;;;;6.00;1.17;;;11.30;99.90;;;;;;5049923;28;20868;-73
2023/11/21 11:48:27;;;;;;;6.40;1.70;;;11.20;99.90;;;;;;5052075;28;20839;-72
2023/11/21 11:51:04;;;;;;;6.70;1.50;;;11.20;99.90;;;;;;5052581;28;20448;-72
2023/11/21 11:53:41;;;;;;;6.30;1.30;;;11.00;99.90;;;;;;5052322;28;20458;-73
2023/11/21 11:56:26;;;;;;;7.00;1.60;;;10.90;99.90;;;;;;5052065;28;20830;-73
2023/11/21 11:58:56;;;;;;;6.60;1.60;;;10.70;99.90;;;;;;5051715;28;20483;-72
2023/11/21 12:01:26;;;;;;;6.40;1.97;;;10.50;99.90;;;;;;5052178;28;20444;-72
2023/11/21 12:04:30;;;;;;;6.80;1.87;;;10.40;99.90;;;;;;5052048;28;20454;-73
2023/11/21 12:07:03;;;;;;;6.60;1.60;;;10.40;99.90;;;;;;5052135;28;20460;-73
2023/11/21 12:09:32;;;;;;;6.20;1.40;;;10.60;99.90;;;;;;5051893;28;20567;-73
2023/11/21 12:12:03;;;;;;;6.90;1.50;;;10.70;99.90;;;;;;5051715;28;20492;-73
2023/11/21 12:14:32;;;;;;;6.47;1.70;;;10.60;99.90;;;;;;5051649;28;20530;-73
2023/11/21 12:17:02;;;;;;;6.00;1.20;;;10.80;99.90;;;;;;5051836;28;20447;-72
2023/11/21 12:19:30;;;;;;;6.60;1.57;;;10.70;99.90;;;;;;5051804;28;20468;-73
2023/11/21 12:22:00;;;;;;;7.43;1.60;;;10.70;99.90;;;;;;5051510;28;20440;-73
2023/11/21 12:24:29;;;;;;;6.73;1.70;;;10.60;99.90;;;;;;5050591;28;20824;-73
2023/11/21 12:26:57;;;;;;;7.23;1.93;;;10.70;99.90;;;;;;5044828;28;20535;-72
2023/11/21 12:29:29;;;;;;;6.87;2.13;;;10.70;99.90;;;;;;5041490;28;20504;-70
2023/11/21 12:31:57;;;;;;;7.20;1.70;;;10.80;99.90;;;;;;5043383;28;20483;-69
2023/11/21 12:34:25;;;;;;;7.30;1.90;;;10.90;99.90;;;;;;5042180;28;20535;-73
2023/11/21 12:36:54;;;;;;;7.40;2.03;;;11.00;99.90;;;;;;5046283;28;20474;-74
2023/11/21 12:39:23;;;;;;;8.23;2.00;;;11.20;99.90;;;;;;5044811;28;20517;-74
2023/11/21 12:41:51;;;;;;;7.70;2.43;;;11.30;99.90;;;;;;5044307;28;20922;-73
2023/11/21 12:44:19;;;;;;;6.57;1.87;;;11.40;99.90;;;;;;5045995;28;21012;-73
2023/11/21 12:46:49;;;;;;;7.40;2.53;;;11.40;99.90;;;;;;5047646;28;20450;-69
2023/11/21 12:49:18;;;;;;;7.40;2.87;;;11.50;99.90;;;;;;5045634;28;20470;-72
2023/11/21 12:51:47;;;;;;;8.20;2.67;;;11.30;99.90;;;;;;5044528;28;20460;-70
2023/11/21 12:54:15;;;;;;;7.93;2.27;;;11.40;99.90;;;;;;5050433;28;20446;-72
2023/11/21 12:56:48;;;;;;;7.40;2.10;;;11.60;99.90;;;;;;5046554;28;20470;-72
2023/11/21 12:59:17;;;;;;;8.70;2.20;;;11.40;99.90;;;;;;5045234;28;21148;-73
2023/11/21 13:01:49;;;;;;;10.07;4.17;;;11.20;99.90;;;;;;5046671;28;20466;-73
2023/11/21 13:04:18;;;;;;;13.97;8.10;;;11.00;99.90;;;;;;5047153;28;20472;-74